createdAt,value
2019-01-26T00:00:48.585Z,35.60
2019-01-26T00:02:20.684Z,33.73
2019-01-26T00:03:52.956Z,33.67
2019-01-26T00:05:25.225Z,32.48
2019-01-26T00:06:57.479Z,35.88
2019-01-26T00:08:29.720Z,32.75
2019-01-26T00:10:02.044Z,35.55
2019-01-26T00:11:34.288Z,35.88
2019-01-26T00:13:06.408Z,34.65
2019-01-26T00:14:38.666Z,34.78
2019-01-26T00:16:10.952Z,38.40
2019-01-26T00:17:43.158Z,32.05
2019-01-26T00:19:15.412Z,31.15
2019-01-26T00:20:47.500Z,33.85
2019-01-26T00:22:19.811Z,35.85
2019-01-26T00:23:52.087Z,32.20
2019-01-26T00:25:24.383Z,38.92
2019-01-26T00:26:56.638Z,33.33
2019-01-26T00:28:28.868Z,36.73
2019-01-26T00:30:01.089Z,34.43
2019-01-26T00:31:33.361Z,35.05
2019-01-26T00:33:05.618Z,32.98
2019-01-26T00:34:37.779Z,32.23
2019-01-26T00:36:10.016Z,36.65
2019-01-26T00:37:42.218Z,35.52
2019-01-26T00:39:14.364Z,34.38
2019-01-26T00:40:46.570Z,31.48
2019-01-26T00:42:18.772Z,33.53
2019-01-26T00:43:51.084Z,31.93
2019-01-26T00:45:23.188Z,32.93
2019-01-26T00:46:55.472Z,32.42
2019-01-26T00:48:27.708Z,31.20
2019-01-26T00:49:59.940Z,31.20
2019-01-26T00:51:32.176Z,33.10
2019-01-26T00:53:04.450Z,33.73
2019-01-26T00:54:36.576Z,30.45
2019-01-26T00:56:08.846Z,34.88
2019-01-26T00:57:41.133Z,32.55
2019-01-26T00:59:13.409Z,32.13
2019-01-26T01:00:45.685Z,33.78
2019-01-26T01:02:17.898Z,33.00
2019-01-26T01:03:50.190Z,32.25
2019-01-26T01:05:22.412Z,30.25
2019-01-26T01:06:54.769Z,32.50
2019-01-26T01:08:27.091Z,31.45
2019-01-26T01:09:59.241Z,30.30
2019-01-26T01:11:31.489Z,30.85
2019-01-26T01:13:03.611Z,26.27
2019-01-26T01:14:35.773Z,29.85
2019-01-26T01:16:08.018Z,31.93
2019-01-26T01:17:40.316Z,28.17
2019-01-26T01:19:12.525Z,30.12
2019-01-26T01:20:44.705Z,28.83
2019-01-26T01:22:16.884Z,26.73
2019-01-26T01:23:49.188Z,28.10
2019-01-26T01:25:21.476Z,29.18
2019-01-26T01:26:53.569Z,27.25
2019-01-26T01:28:25.910Z,28.17
2019-01-26T01:29:58.184Z,27.75
2019-01-26T01:31:30.279Z,27.17
2019-01-26T01:33:02.444Z,28.32
2019-01-26T01:34:34.704Z,29.18
2019-01-26T01:36:06.937Z,28.75
2019-01-26T01:37:39.235Z,28.07
2019-01-26T01:39:11.551Z,26.70
2019-01-26T01:40:43.926Z,25.77
2019-01-26T01:42:16.121Z,27.40
2019-01-26T01:43:48.337Z,29.75
2019-01-26T01:45:20.610Z,25.32
2019-01-26T01:46:52.826Z,26.50
2019-01-26T01:48:25.077Z,27.52
2019-01-26T01:49:57.322Z,28.38
2019-01-26T01:51:29.612Z,25.85
2019-01-26T01:53:01.820Z,26.25
2019-01-26T01:54:34.072Z,26.37
2019-01-26T01:56:06.385Z,26.93
2019-01-26T01:57:38.508Z,26.35
2019-01-26T01:59:10.802Z,24.43
2019-01-26T02:00:43.029Z,24.55
2019-01-26T02:02:15.146Z,25.55
2019-01-26T02:03:47.235Z,24.43
2019-01-26T02:05:19.537Z,25.62
2019-01-26T02:06:51.668Z,23.62
2019-01-26T02:08:23.966Z,24.47
2019-01-26T02:09:56.086Z,23.92
2019-01-26T02:11:28.322Z,25.48
2019-01-26T02:13:00.521Z,21.42
2019-01-26T02:14:32.746Z,24.85
2019-01-26T02:16:05.049Z,22.58
2019-01-26T02:17:37.308Z,24.20
2019-01-26T02:19:09.610Z,26.33
2019-01-26T02:20:41.862Z,22.60
2019-01-26T02:22:14.106Z,24.35
2019-01-26T02:23:46.289Z,21.57
2019-01-26T02:25:18.630Z,22.75
2019-01-26T02:26:50.947Z,24.10
2019-01-26T02:28:23.244Z,23.98
2019-01-26T02:29:55.381Z,23.27
2019-01-26T02:31:27.549Z,23.07
2019-01-26T02:32:59.812Z,23.83
2019-01-26T02:34:32.064Z,22.32
2019-01-26T02:36:04.169Z,22.75
2019-01-26T02:37:36.391Z,24.65
2019-01-26T02:39:08.662Z,22.17
2019-01-26T02:40:40.804Z,22.93
2019-01-26T02:42:13.035Z,24.15
2019-01-26T02:43:45.184Z,22.30
2019-01-26T02:45:17.461Z,22.55
2019-01-26T02:46:49.702Z,22.27
2019-01-26T02:58:33.615Z,21.97
2019-01-26T03:00:14.083Z,20.72
2019-01-26T03:01:46.202Z,20.12
2019-01-26T03:03:18.491Z,20.95
2019-01-26T03:04:50.711Z,19.30
2019-01-26T03:06:22.918Z,19.90
2019-01-26T03:07:55.032Z,20.32
2019-01-26T03:09:27.218Z,21.42
2019-01-26T03:10:59.338Z,20.35
2019-01-26T03:12:31.624Z,22.10
2019-01-26T03:14:03.883Z,19.70
2019-01-26T03:15:36.238Z,20.60
2019-01-26T03:17:08.505Z,21.93
2019-01-26T03:18:40.804Z,21.30
2019-01-26T03:20:13.988Z,22.82
2019-01-26T03:21:46.254Z,19.48
2019-01-26T03:23:18.554Z,20.77
2019-01-26T03:24:50.849Z,19.60
2019-01-26T03:26:23.151Z,17.73
2019-01-26T03:27:55.432Z,22.35
2019-01-26T03:29:27.735Z,21.30
2019-01-26T03:31:00.006Z,18.98
2019-01-26T03:32:32.286Z,20.20
2019-01-26T03:34:04.516Z,19.45
2019-01-26T03:35:36.694Z,20.05
2019-01-26T03:37:08.854Z,20.40
2019-01-26T03:38:41.065Z,18.98
2019-01-26T03:40:15.151Z,17.40
2019-01-26T03:41:47.395Z,18.55
2019-01-26T03:43:19.871Z,17.70
2019-01-26T03:44:52.118Z,19.07
2019-01-26T03:46:24.388Z,17.45
2019-01-26T03:47:56.497Z,16.65
2019-01-26T03:49:28.784Z,17.60
2019-01-26T03:51:01.045Z,17.05
2019-01-26T03:52:33.264Z,16.35
2019-01-26T03:54:05.520Z,15.90
2019-01-26T03:55:37.802Z,16.48
2019-01-26T03:57:10.077Z,18.42
2019-01-26T03:58:42.352Z,16.80
2019-01-26T04:00:19.674Z,17.30
2019-01-26T04:01:51.948Z,15.48
2019-01-26T04:03:24.424Z,16.48
2019-01-26T04:04:57.212Z,17.90
2019-01-26T04:06:29.371Z,15.83
2019-01-26T04:08:01.608Z,17.48
2019-01-26T04:09:33.816Z,15.95
2019-01-26T04:11:06.098Z,13.98
2019-01-26T04:12:38.336Z,15.70
2019-01-26T04:14:10.628Z,13.30
2019-01-26T04:15:42.848Z,14.15
2019-01-26T04:17:21.735Z,14.28
2019-01-26T04:18:49.312Z,14.25
2019-01-26T04:20:21.696Z,14.07
2019-01-26T04:21:54.512Z,14.55
2019-01-26T04:23:26.871Z,13.80
2019-01-26T04:24:59.011Z,12.95
2019-01-26T04:26:31.147Z,14.30
2019-01-26T04:28:03.433Z,12.65
2019-01-26T04:29:35.742Z,14.83
2019-01-26T04:31:07.997Z,12.65
2019-01-26T04:32:40.251Z,13.00
2019-01-26T04:34:12.521Z,14.63
2019-01-26T04:35:44.816Z,14.65
2019-01-26T04:37:17.090Z,13.98
2019-01-26T04:38:49.367Z,14.58
2019-01-26T04:40:21.611Z,14.13
2019-01-26T04:41:53.891Z,14.90
2019-01-26T04:43:26.009Z,17.23
2019-01-26T04:44:58.268Z,16.02
2019-01-26T04:46:30.541Z,15.35
2019-01-26T04:48:02.974Z,14.68
2019-01-26T04:49:35.093Z,16.00
2019-01-26T04:51:07.404Z,15.30
2019-01-26T04:52:39.687Z,16.67
2019-01-26T04:54:11.932Z,15.23
2019-01-26T04:55:44.088Z,15.20
2019-01-26T04:57:16.314Z,15.70
2019-01-26T04:58:48.586Z,14.85
2019-01-26T05:00:22.894Z,14.93
2019-01-26T05:01:55.170Z,16.82
2019-01-26T05:03:27.424Z,15.78
2019-01-26T05:04:59.691Z,17.60
2019-01-26T05:06:31.948Z,15.32
2019-01-26T05:08:04.216Z,15.45
2019-01-26T05:09:36.467Z,15.53
2019-01-26T05:11:09.438Z,18.00
2019-01-26T05:12:41.725Z,16.00
2019-01-26T05:14:14.002Z,16.35
2019-01-26T05:15:46.264Z,16.85
2019-01-26T05:17:18.511Z,17.27
2019-01-26T05:18:50.617Z,16.45
2019-01-26T05:20:24.054Z,16.10
2019-01-26T05:21:56.182Z,16.93
2019-01-26T05:23:28.262Z,16.70
2019-01-26T05:25:00.590Z,18.70
2019-01-26T05:26:32.723Z,18.52
2019-01-26T05:28:04.828Z,18.10
2019-01-26T05:29:37.079Z,18.98
2019-01-26T05:31:09.338Z,20.88
2019-01-26T05:32:41.549Z,15.98
2019-01-26T05:34:13.737Z,17.15
2019-01-26T05:35:46.106Z,16.25
2019-01-26T05:37:18.409Z,17.48
2019-01-26T05:38:50.684Z,17.50
2019-01-26T05:40:22.844Z,20.12
2019-01-26T05:41:55.107Z,18.20
2019-01-26T05:43:27.364Z,19.12
2019-01-26T05:44:59.617Z,18.92
2019-01-26T05:46:31.899Z,22.07
2019-01-26T05:48:04.306Z,20.85
2019-01-26T05:49:36.423Z,22.55
2019-01-26T05:51:08.543Z,20.62
2019-01-26T05:52:40.677Z,24.07
2019-01-26T05:54:12.971Z,22.25
2019-01-26T05:55:45.966Z,20.62
2019-01-26T05:57:18.093Z,21.33
2019-01-26T05:58:50.352Z,22.30
2019-01-26T06:00:27.334Z,21.37
2019-01-26T06:01:59.524Z,21.33
2019-01-26T06:03:31.629Z,24.52
2019-01-26T06:05:04.341Z,21.12
2019-01-26T06:06:36.549Z,21.12
2019-01-26T06:08:08.819Z,22.05
2019-01-26T06:09:41.044Z,24.43
2019-01-26T06:11:13.331Z,20.68
2019-01-26T06:12:45.542Z,23.15
2019-01-26T06:14:17.890Z,21.37
2019-01-26T06:15:50.173Z,22.90
2019-01-26T06:17:22.494Z,21.77
2019-01-26T06:18:54.732Z,23.80
2019-01-26T06:20:27.018Z,25.27
2019-01-26T06:21:59.237Z,22.75
2019-01-26T06:23:31.529Z,21.37
2019-01-26T06:25:04.550Z,22.30
2019-01-26T06:26:36.792Z,20.43
2019-01-26T06:28:09.637Z,22.82
2019-01-26T06:29:41.780Z,21.87
2019-01-26T06:31:14.054Z,21.52
2019-01-26T06:32:46.189Z,22.27
2019-01-26T06:34:18.405Z,25.17
2019-01-26T06:35:50.543Z,20.68
2019-01-26T06:37:22.729Z,24.70
2019-01-26T06:38:54.936Z,23.80
2019-01-26T06:40:27.096Z,24.30
2019-01-26T06:41:59.343Z,22.85
2019-01-26T06:43:31.477Z,20.37
2019-01-26T06:45:03.930Z,22.62
2019-01-26T06:46:36.070Z,20.88
2019-01-26T06:48:08.307Z,19.48
2019-01-26T06:49:40.558Z,21.37
2019-01-26T06:51:12.820Z,21.77
2019-01-26T06:52:45.092Z,23.65
2019-01-26T06:54:17.329Z,23.90
2019-01-26T06:55:49.586Z,20.80
2019-01-26T06:57:21.676Z,22.58
2019-01-26T06:58:53.936Z,21.00
2019-01-26T07:00:30.557Z,20.65
2019-01-26T07:02:02.978Z,22.32
2019-01-26T07:03:35.113Z,21.95
2019-01-26T07:05:25.656Z,21.05
2019-01-26T07:07:09.714Z,20.15
2019-01-26T07:08:42.092Z,21.15
2019-01-26T07:10:14.339Z,19.85
2019-01-26T07:11:46.580Z,20.92
2019-01-26T07:13:18.816Z,19.48
2019-01-26T07:14:50.962Z,20.12
2019-01-26T07:16:24.895Z,17.10
2019-01-26T07:17:57.198Z,17.80
2019-01-26T07:19:29.315Z,18.30
2019-01-26T07:21:01.451Z,19.20
2019-01-26T07:22:33.701Z,18.98
2019-01-26T07:24:05.812Z,18.70
2019-01-26T07:25:38.064Z,15.95
2019-01-26T07:27:10.374Z,17.85
2019-01-26T07:28:42.594Z,18.92
2019-01-26T07:30:16.822Z,17.52
2019-01-26T07:31:49.098Z,18.05
2019-01-26T07:33:21.373Z,17.02
2019-01-26T07:34:53.687Z,18.20
2019-01-26T07:36:25.980Z,16.67
2019-01-26T07:37:58.271Z,17.50
2019-01-26T07:39:30.532Z,16.48
2019-01-26T07:41:02.905Z,14.55
2019-01-26T07:42:35.184Z,12.35
2019-01-26T07:44:07.417Z,12.23
2019-01-26T07:45:39.717Z,10.93
2019-01-26T07:47:11.954Z,11.48
2019-01-26T07:48:44.559Z,11.38
2019-01-26T07:50:18.004Z,11.78
2019-01-26T07:51:50.243Z,13.10
2019-01-26T07:53:22.375Z,12.53
2019-01-26T07:54:54.747Z,12.13
2019-01-26T07:56:26.961Z,15.08
2019-01-26T07:57:59.300Z,12.78
2019-01-26T07:59:31.673Z,12.95
2019-01-26T08:01:03.896Z,12.47
2019-01-26T08:02:36.126Z,11.25
2019-01-26T08:04:08.396Z,14.03
2019-01-26T08:05:40.704Z,12.30
2019-01-26T08:07:13.059Z,11.90
2019-01-26T08:08:45.297Z,12.15
2019-01-26T08:10:19.785Z,13.10
2019-01-26T08:11:52.012Z,12.78
2019-01-26T08:13:24.296Z,13.18
2019-01-26T08:14:56.445Z,13.32
2019-01-26T08:16:28.728Z,13.38
2019-01-26T08:18:01.022Z,13.40
2019-01-26T08:19:33.328Z,16.70
2019-01-26T08:21:05.489Z,13.95
2019-01-26T08:22:37.744Z,13.32
2019-01-26T08:24:10.124Z,13.68
2019-01-26T08:25:42.310Z,15.18
2019-01-26T08:27:14.551Z,14.07
2019-01-26T08:28:46.838Z,16.37
2019-01-26T08:30:20.436Z,14.23
2019-01-26T08:31:52.698Z,13.25
2019-01-26T08:33:25.040Z,15.80
2019-01-26T08:34:57.256Z,15.18
2019-01-26T08:36:29.403Z,17.20
2019-01-26T08:38:01.664Z,15.72
2019-01-26T08:39:33.995Z,14.13
2019-01-26T08:41:06.386Z,15.60
2019-01-26T08:42:38.660Z,16.12
2019-01-26T08:44:10.885Z,15.25
2019-01-26T08:45:43.232Z,13.60
2019-01-26T08:47:15.521Z,15.18
2019-01-26T08:48:47.842Z,13.03
2019-01-26T08:50:21.834Z,14.18
2019-01-26T08:51:54.107Z,14.95
2019-01-26T08:53:26.258Z,16.27
2019-01-26T08:54:58.535Z,14.83
2019-01-26T08:56:30.798Z,15.15
2019-01-26T08:58:03.083Z,15.25
2019-01-26T08:59:35.440Z,15.78
2019-01-26T09:01:07.642Z,17.45
2019-01-26T09:03:02.241Z,16.70
2019-01-26T09:04:34.642Z,18.45
2019-01-26T09:06:23.036Z,16.37
2019-01-26T09:07:55.417Z,16.20
2019-01-26T09:09:27.762Z,17.85
2019-01-26T09:11:00.072Z,18.52
2019-01-26T09:12:32.301Z,28.10
2019-01-26T09:14:04.546Z,23.90
2019-01-26T09:15:36.865Z,17.42
2019-01-26T09:17:09.136Z,15.85
2019-01-26T09:18:41.454Z,17.87
2019-01-26T09:20:13.992Z,15.10
2019-01-26T09:21:46.118Z,16.37
2019-01-26T09:23:18.513Z,15.10
2019-01-26T09:24:50.766Z,15.58
2019-01-26T09:26:23.007Z,16.77
2019-01-26T09:27:55.452Z,16.00
2019-01-26T09:29:27.725Z,17.12
2019-01-26T09:30:59.883Z,15.65
2019-01-26T09:32:32.195Z,17.12
2019-01-26T09:34:05.016Z,15.15
2019-01-26T09:35:37.237Z,16.12
2019-01-26T09:37:09.609Z,14.78
2019-01-26T09:38:41.877Z,13.70
2019-01-26T09:40:14.692Z,15.28
2019-01-26T09:41:46.892Z,16.37
2019-01-26T09:43:19.194Z,16.95
2019-01-26T09:44:51.593Z,14.13
2019-01-26T09:46:23.850Z,17.12
2019-01-26T09:47:56.112Z,16.37
2019-01-26T09:49:28.337Z,16.27
2019-01-26T09:51:00.591Z,15.45
2019-01-26T09:52:32.871Z,14.03
2019-01-26T09:54:05.255Z,14.58
2019-01-26T09:55:37.491Z,15.45
2019-01-26T09:57:09.721Z,13.08
2019-01-26T09:58:41.964Z,12.73
2019-01-26T10:00:15.606Z,13.65
2019-01-26T10:01:47.788Z,13.55
2019-01-26T10:03:20.066Z,12.45
2019-01-26T10:04:52.335Z,13.60
2019-01-26T10:06:24.445Z,13.05
2019-01-26T10:07:56.756Z,11.85
2019-01-26T10:09:29.005Z,12.00
2019-01-26T10:11:01.416Z,12.75
2019-01-26T10:12:33.722Z,12.03
2019-01-26T10:14:05.948Z,10.68
2019-01-26T10:15:38.206Z,10.20
2019-01-26T10:17:10.464Z,9.95
2019-01-26T10:18:42.808Z,10.43
2019-01-26T10:20:20.119Z,13.08
2019-01-26T10:21:52.380Z,9.88
2019-01-26T10:23:24.616Z,10.60
2019-01-26T10:24:56.962Z,12.07
2019-01-26T10:26:29.216Z,10.10
2019-01-26T10:28:01.510Z,10.82
2019-01-26T10:29:33.841Z,11.30
2019-01-26T10:31:06.050Z,11.18
2019-01-26T10:32:38.334Z,9.73
2019-01-26T10:34:11.387Z,11.97
2019-01-26T10:36:18.157Z,11.90
2019-01-26T10:37:50.517Z,12.03
2019-01-26T10:39:22.756Z,11.38
2019-01-26T10:41:17.530Z,11.93
2019-01-26T10:42:49.781Z,13.40
2019-01-26T10:44:25.244Z,12.40
2019-01-26T10:45:57.501Z,12.03
2019-01-26T10:47:29.781Z,13.30
2019-01-26T10:49:02.005Z,11.85
2019-01-26T10:50:34.078Z,15.50
2019-01-26T10:52:06.507Z,13.58
2019-01-26T10:53:38.852Z,14.73
2019-01-26T10:55:11.101Z,13.48
2019-01-26T10:56:43.455Z,13.45
2019-01-26T10:58:15.717Z,13.35
2019-01-26T10:59:47.976Z,12.47
2019-01-26T11:01:20.307Z,13.98
2019-01-26T11:02:52.649Z,13.43
2019-01-26T11:04:24.984Z,13.98
2019-01-26T11:05:57.343Z,12.05
2019-01-26T11:07:29.440Z,14.70
2019-01-26T11:09:01.685Z,13.10
2019-01-26T11:10:33.950Z,13.35
2019-01-26T11:12:06.185Z,14.93
2019-01-26T11:13:38.741Z,13.30
2019-01-26T11:15:10.987Z,13.93
2019-01-26T11:16:43.305Z,11.45
2019-01-26T11:18:15.586Z,11.85
2019-01-26T11:19:47.925Z,11.95
2019-01-26T11:21:20.279Z,10.88
2019-01-26T11:22:52.640Z,9.25
2019-01-26T11:24:24.790Z,9.50
2019-01-26T11:25:57.087Z,11.18
2019-01-26T11:27:29.500Z,10.53
2019-01-26T11:29:01.775Z,11.35
2019-01-26T11:30:34.465Z,15.75
2019-01-26T11:32:06.651Z,12.70
2019-01-26T11:33:38.927Z,12.37
2019-01-26T11:35:11.189Z,12.05
2019-01-26T11:36:43.465Z,10.82
2019-01-26T11:38:15.713Z,11.35
2019-01-26T11:39:54.605Z,12.47
2019-01-26T11:41:26.711Z,9.88
2019-01-26T11:42:58.979Z,10.75
2019-01-26T11:44:31.167Z,28.65
2019-01-26T11:46:14.458Z,10.98
2019-01-26T11:47:46.748Z,47.65
2019-01-26T11:49:19.109Z,31.27
2019-01-26T11:50:56.210Z,19.85
2019-01-26T11:52:28.472Z,60.00
2019-01-26T11:54:00.723Z,12.95
2019-01-26T11:55:53.629Z,26.87
2019-01-26T11:57:28.631Z,14.30
2019-01-26T11:59:00.909Z,12.70
2019-01-26T12:01:04.749Z,10.78
2019-01-26T12:02:43.122Z,10.95
2019-01-26T12:04:33.304Z,12.40
2019-01-26T12:06:11.646Z,9.55
2019-01-26T12:07:44.012Z,12.65
2019-01-26T12:09:17.176Z,10.60
2019-01-26T12:10:49.498Z,10.40
2019-01-26T12:12:21.796Z,10.38
2019-01-26T12:13:53.912Z,10.90
2019-01-26T12:15:26.174Z,10.00
2019-01-26T12:16:58.349Z,11.38
2019-01-26T12:18:30.638Z,10.43
2019-01-26T12:20:03.639Z,10.78
2019-01-26T12:21:35.925Z,10.00
2019-01-26T12:23:08.131Z,9.20
2019-01-26T12:24:40.395Z,9.05
2019-01-26T12:26:12.600Z,9.98
2019-01-26T12:27:44.873Z,10.25
2019-01-26T12:29:17.031Z,9.48
2019-01-26T12:30:49.347Z,9.00
2019-01-26T12:32:21.663Z,8.68
2019-01-26T12:33:53.971Z,9.70
2019-01-26T12:35:26.332Z,8.75
2019-01-26T12:36:58.624Z,8.83
2019-01-26T12:38:30.703Z,9.00
2019-01-26T12:40:03.275Z,8.70
2019-01-26T12:41:35.643Z,9.08
2019-01-26T12:43:07.771Z,8.03
2019-01-26T12:44:39.999Z,8.40
2019-01-26T12:46:12.156Z,8.13
2019-01-26T12:47:44.379Z,7.22
2019-01-26T12:49:16.756Z,7.45
2019-01-26T12:50:49.030Z,8.15
2019-01-26T12:52:21.309Z,7.22
2019-01-26T12:53:53.644Z,6.40
2019-01-26T12:55:25.944Z,6.70
2019-01-26T12:56:58.163Z,6.90
2019-01-26T12:58:30.453Z,8.40
2019-01-26T13:00:03.311Z,7.67
2019-01-26T13:01:35.520Z,8.03
2019-01-26T13:03:07.916Z,7.62
2019-01-26T13:04:40.155Z,6.83
2019-01-26T13:06:12.382Z,7.17
2019-01-26T13:07:44.710Z,6.83
2019-01-26T13:09:17.073Z,9.20
2019-01-26T13:10:52.905Z,6.83
2019-01-26T13:12:25.136Z,6.62
2019-01-26T13:13:57.429Z,8.03
2019-01-26T13:15:29.743Z,7.83
2019-01-26T13:17:02.047Z,6.83
2019-01-26T13:18:34.313Z,7.22
2019-01-26T13:20:08.037Z,8.38
2019-01-26T13:21:40.350Z,7.08
2019-01-26T13:23:12.674Z,7.58
2019-01-26T13:24:44.900Z,7.00
2019-01-26T13:26:17.171Z,7.40
2019-01-26T13:27:49.448Z,6.90
2019-01-26T13:29:21.733Z,7.37
2019-01-26T13:30:54.094Z,7.45
2019-01-26T13:32:26.355Z,5.80
2019-01-26T13:33:58.584Z,8.10
2019-01-26T13:35:30.712Z,6.83
2019-01-26T13:37:02.964Z,6.67
2019-01-26T13:38:35.336Z,7.40
2019-01-26T13:40:10.405Z,6.78
2019-01-26T13:41:42.750Z,6.60
2019-01-26T13:43:14.840Z,6.28
2019-01-26T13:44:47.125Z,8.05
2019-01-26T13:46:19.492Z,6.87
2019-01-26T13:47:51.881Z,5.97
2019-01-26T13:49:24.142Z,6.40
2019-01-26T13:50:56.573Z,5.75
2019-01-26T13:52:28.718Z,5.75
2019-01-26T13:54:00.983Z,5.55
2019-01-26T13:55:33.310Z,6.10
2019-01-26T13:57:05.580Z,6.08
2019-01-26T13:58:37.789Z,6.17
2019-01-26T14:00:22.927Z,7.25
2019-01-26T14:01:55.222Z,6.50
2019-01-26T14:03:27.620Z,7.53
2019-01-26T14:04:59.958Z,6.95
2019-01-26T14:06:32.201Z,6.62
2019-01-26T14:08:04.545Z,7.53
2019-01-26T14:09:36.745Z,8.30
2019-01-26T14:11:12.060Z,7.45
2019-01-26T14:12:44.216Z,6.47
2019-01-26T14:14:16.530Z,6.95
2019-01-26T14:15:48.850Z,7.33
2019-01-26T14:17:21.104Z,7.03
2019-01-26T14:18:53.340Z,7.40
2019-01-26T14:20:25.672Z,7.28
2019-01-26T14:21:57.967Z,8.10
2019-01-26T14:23:30.073Z,7.83
2019-01-26T14:25:02.372Z,8.05
2019-01-26T14:26:34.621Z,7.60
2019-01-26T14:28:06.904Z,6.80
2019-01-26T14:29:39.158Z,7.78
2019-01-26T14:31:11.567Z,7.42
2019-01-26T14:32:43.687Z,7.42
2019-01-26T14:34:15.775Z,6.78
2019-01-26T14:35:48.115Z,7.25
2019-01-26T14:37:20.408Z,8.73
2019-01-26T14:38:52.508Z,7.20
2019-01-26T14:40:24.902Z,8.00
2019-01-26T14:41:57.167Z,6.78
2019-01-26T14:43:29.428Z,8.75
2019-01-26T14:45:01.688Z,6.70
2019-01-26T14:46:33.951Z,6.72
2019-01-26T14:48:06.211Z,7.05
2019-01-26T14:49:38.569Z,6.65
2019-01-26T14:51:10.754Z,7.75
2019-01-26T14:52:43.090Z,8.10
2019-01-26T14:54:15.247Z,10.10
2019-01-26T14:55:47.677Z,7.10
2019-01-26T14:57:19.941Z,8.18
2019-01-26T14:58:52.139Z,8.40
2019-01-26T15:00:29.412Z,7.60
2019-01-26T15:02:01.573Z,9.08
2019-01-26T15:03:33.829Z,9.35
2019-01-26T15:05:06.284Z,8.73
2019-01-26T15:06:38.414Z,8.73
2019-01-26T15:08:10.556Z,8.03
2019-01-26T15:09:42.890Z,7.60
2019-01-26T15:11:15.088Z,7.95
2019-01-26T15:12:47.347Z,7.60
2019-01-26T15:14:19.556Z,8.43
2019-01-26T15:15:51.940Z,8.08
2019-01-26T15:17:24.213Z,7.67
2019-01-26T15:18:56.518Z,8.45
2019-01-26T15:20:31.302Z,10.13
2019-01-26T15:22:03.707Z,9.40
2019-01-26T15:23:36.101Z,9.15
2019-01-26T15:25:08.435Z,8.58
2019-01-26T15:26:40.824Z,10.40
2019-01-26T15:28:13.182Z,8.25
2019-01-26T15:29:45.607Z,8.23
2019-01-26T15:31:17.864Z,8.95
2019-01-26T15:32:50.168Z,8.63
2019-01-26T15:34:22.647Z,9.18
2019-01-26T15:35:54.934Z,8.10
2019-01-26T15:37:27.190Z,9.95
2019-01-26T15:38:59.617Z,8.75
2019-01-26T15:40:31.944Z,11.10
2019-01-26T15:42:04.400Z,9.53
2019-01-26T15:43:36.767Z,8.95
2019-01-26T15:45:14.592Z,9.35
2019-01-26T15:46:46.859Z,9.98
2019-01-26T15:48:19.068Z,9.30
2019-01-26T15:49:51.181Z,10.60
2019-01-26T15:51:23.415Z,9.73
2019-01-26T15:52:55.660Z,10.98
2019-01-26T15:54:27.937Z,9.65
2019-01-26T15:56:00.237Z,10.65
2019-01-26T15:57:32.411Z,9.35
2019-01-26T15:59:04.672Z,10.25
2019-01-26T16:00:39.607Z,8.70
2019-01-26T16:02:11.864Z,10.93
2019-01-26T16:03:44.048Z,8.83
2019-01-26T16:05:16.277Z,10.75
2019-01-26T16:06:48.546Z,9.23
2019-01-26T16:08:20.842Z,10.35
2019-01-26T16:09:53.189Z,9.30
2019-01-26T16:11:25.286Z,9.50
2019-01-26T16:12:57.585Z,12.00
2019-01-26T16:14:29.726Z,12.58
2019-01-26T16:16:01.811Z,11.65
2019-01-26T16:17:34.149Z,17.05
2019-01-26T16:19:06.381Z,18.87
2019-01-26T16:20:38.724Z,13.30
2019-01-26T16:22:11.047Z,14.45
2019-01-26T16:23:43.306Z,9.55
2019-01-26T16:25:15.657Z,11.05
2019-01-26T16:26:47.926Z,11.00
2019-01-26T16:28:20.164Z,10.82
2019-01-26T16:29:52.450Z,10.93
2019-01-26T16:31:24.774Z,12.33
2019-01-26T16:32:57.004Z,13.45
2019-01-26T16:34:29.292Z,12.55
2019-01-26T16:36:01.396Z,12.80
2019-01-26T16:37:33.488Z,11.20
2019-01-26T16:39:08.551Z,10.25
2019-01-26T16:40:40.760Z,11.85
2019-01-26T16:42:13.002Z,13.80
2019-01-26T16:43:45.253Z,13.68
2019-01-26T16:45:19.952Z,12.68
2019-01-26T16:46:52.338Z,12.30
2019-01-26T16:48:24.591Z,15.10
2019-01-26T16:49:56.663Z,12.25
2019-01-26T16:51:28.894Z,13.22
2019-01-26T16:53:01.037Z,13.28
2019-01-26T16:54:33.300Z,13.45
2019-01-26T16:56:05.592Z,13.85
2019-01-26T16:57:38.019Z,12.13
2019-01-26T16:59:10.267Z,12.30
2019-01-26T17:00:47.240Z,13.45
2019-01-26T17:02:19.481Z,11.95
2019-01-26T17:03:51.637Z,10.72
2019-01-26T17:05:25.865Z,11.33
2019-01-26T17:06:58.077Z,12.45
2019-01-26T17:08:30.405Z,11.88
2019-01-26T17:10:03.309Z,10.93
2019-01-26T17:11:35.604Z,10.15
2019-01-26T17:13:07.716Z,8.10
2019-01-26T17:14:39.935Z,9.40
2019-01-26T17:16:12.192Z,9.73
2019-01-26T17:17:44.487Z,7.58
2019-01-26T17:19:16.714Z,7.45
2019-01-26T17:20:48.957Z,7.95
2019-01-26T17:22:21.192Z,7.35
2019-01-26T17:23:53.460Z,7.47
2019-01-26T17:25:25.625Z,8.00
2019-01-26T17:26:57.839Z,8.10
2019-01-26T17:28:30.000Z,8.18
2019-01-26T17:30:02.836Z,9.63
2019-01-26T17:31:35.092Z,9.13
2019-01-26T17:33:07.928Z,9.68
2019-01-26T17:34:40.081Z,8.90
2019-01-26T17:36:12.411Z,7.95
2019-01-26T17:37:44.705Z,7.50
2019-01-26T17:39:16.862Z,8.13
2019-01-26T17:40:54.292Z,7.50
2019-01-26T17:42:23.079Z,8.40
2019-01-26T17:43:55.346Z,6.90
2019-01-26T17:45:27.574Z,7.53
2019-01-26T17:46:59.839Z,7.17
2019-01-26T17:48:35.448Z,6.70
2019-01-26T17:50:10.610Z,6.47
2019-01-26T17:51:42.766Z,6.80
2019-01-26T17:53:14.909Z,6.28
2019-01-26T17:54:47.329Z,6.12
2019-01-26T17:56:19.604Z,6.53
2019-01-26T17:57:51.739Z,6.80
2019-01-26T17:59:24.028Z,7.40
2019-01-26T18:00:57.717Z,6.67
2019-01-26T18:02:29.910Z,6.20
2019-01-26T18:04:02.143Z,6.75
2019-01-26T18:05:34.369Z,6.20
2019-01-26T18:07:06.502Z,6.97
2019-01-26T18:08:38.759Z,6.78
2019-01-26T18:10:13.525Z,6.00
2019-01-26T18:11:45.767Z,5.35
2019-01-26T18:13:18.046Z,5.58
2019-01-26T18:14:50.170Z,5.55
2019-01-26T18:16:22.456Z,5.70
2019-01-26T18:17:54.539Z,6.15
2019-01-26T18:19:26.794Z,6.03
2019-01-26T18:20:58.909Z,5.78
2019-01-26T18:22:31.194Z,6.30
2019-01-26T18:24:03.544Z,5.53
2019-01-26T18:25:39.585Z,6.72
2019-01-26T18:27:11.848Z,5.08
2019-01-26T18:28:44.176Z,5.75
2019-01-26T18:30:19.320Z,5.22
2019-01-26T18:31:51.603Z,5.55
2019-01-26T18:33:23.870Z,4.12
2019-01-26T18:34:56.243Z,6.30
2019-01-26T18:36:28.609Z,4.60
2019-01-26T18:38:00.874Z,5.20
2019-01-26T18:39:33.147Z,5.10
2019-01-26T18:41:05.397Z,4.80
2019-01-26T18:42:38.241Z,4.95
2019-01-26T18:44:10.496Z,4.75
2019-01-26T18:45:42.823Z,4.90
2019-01-26T18:47:15.050Z,4.67
2019-01-26T18:48:47.294Z,4.72
2019-01-26T18:50:21.595Z,4.47
2019-01-26T18:51:53.847Z,6.55
2019-01-26T18:53:26.067Z,4.80
2019-01-26T18:54:58.212Z,5.50
2019-01-26T18:56:30.508Z,5.15
2019-01-26T18:58:02.886Z,5.05
2019-01-26T18:59:35.330Z,4.42
2019-01-26T19:01:07.655Z,5.55
2019-01-26T19:02:39.840Z,4.55
2019-01-26T19:04:21.578Z,4.83
2019-01-26T19:05:54.862Z,4.62
2019-01-26T19:07:27.137Z,4.80
2019-01-26T19:08:59.367Z,4.72
2019-01-26T19:10:31.682Z,4.45
2019-01-26T19:12:04.068Z,4.40
2019-01-26T19:13:36.393Z,4.80
2019-01-26T19:15:12.136Z,4.60
2019-01-26T19:16:44.309Z,4.40
2019-01-26T19:18:16.584Z,4.42
2019-01-26T19:19:48.950Z,4.75
2019-01-26T19:21:21.251Z,5.10
2019-01-26T19:22:53.588Z,5.08
2019-01-26T19:24:25.843Z,4.85
2019-01-26T19:25:58.149Z,5.00
2019-01-26T19:27:30.425Z,5.30
2019-01-26T19:29:02.903Z,5.67
2019-01-26T19:30:35.221Z,5.80
2019-01-26T19:32:07.348Z,7.08
2019-01-26T19:33:39.630Z,5.90
2019-01-26T19:35:12.038Z,7.35
2019-01-26T19:36:44.299Z,7.30
2019-01-26T19:38:16.611Z,5.90
2019-01-26T19:39:48.845Z,5.87
2019-01-26T19:41:21.191Z,5.22
2019-01-26T19:42:54.053Z,7.05
2019-01-26T19:44:26.171Z,6.28
2019-01-26T19:45:58.453Z,7.75
2019-01-26T19:47:30.724Z,8.40
2019-01-26T19:49:03.107Z,8.03
2019-01-26T19:50:35.378Z,6.12
2019-01-26T19:52:07.588Z,7.30
2019-01-26T19:53:39.730Z,6.92
2019-01-26T19:55:12.448Z,11.18
2019-01-26T19:56:44.593Z,6.17
2019-01-26T19:58:16.853Z,8.30
2019-01-26T19:59:49.158Z,7.78
2019-01-26T20:01:21.418Z,10.68
2019-01-26T20:02:53.531Z,9.78
2019-01-26T20:04:25.818Z,8.55
2019-01-26T20:05:57.955Z,6.53
2019-01-26T20:07:30.257Z,6.30
2019-01-26T20:09:09.329Z,7.80
2019-01-26T20:10:39.015Z,5.70
2019-01-26T20:12:11.274Z,8.45
2019-01-26T20:13:43.380Z,7.03
2019-01-26T20:15:17.106Z,6.40
2019-01-26T20:16:49.340Z,7.20
2019-01-26T20:18:21.649Z,7.05